Time;durP1;ratioP1;P1;durP2;ratioP2;P2;SDS_P1;SDS_P2;PMS_P1;PMS_P2;Temp;Humidity;BMP_temperature;BMP_pressure;BME280_temperature;BME280_humidity;BME280_pressure;Samples;Min_cycle;Max_cycle;Signal;HPM_P1;HPM_P2
2023/04/05 00:00:00;;;;;;;1.70;1.15;;;;;;;5.57;62.99;102629.34;5030518;28;99699;-30
2023/04/05 00:02:28;;;;;;;3.22;1.70;;;;;;;5.51;62.28;102624.94;5031695;28;99726;-30
2023/04/05 00:04:56;;;;;;;6.50;2.78;;;;;;;5.45;62.82;102615.13;5030363;27;96742;-31
2023/04/05 00:07:21;;;;;;;8.13;3.08;;;;;;;5.44;62.70;102618.75;5030574;28;96845;-30
2023/04/05 00:09:47;;;;;;;3.92;2.33;;;;;;;5.40;63.42;102614.31;5031744;27;99868;-30
2023/04/05 00:12:12;;;;;;;3.28;2.28;;;;;;;5.42;63.08;102623.25;5030669;28;100747;-30
2023/04/05 00:14:38;;;;;;;8.80;3.83;;;;;;;5.39;62.90;102619.72;5031700;27;96836;-32
2023/04/05 00:17:03;;;;;;;6.75;3.28;;;;;;;5.33;63.81;102610.78;5031804;27;96767;-31
2023/04/05 00:19:32;;;;;;;4.57;2.50;;;;;;;5.28;64.06;102606.38;5031309;27;97319;-30
2023/04/05 00:21:58;;;;;;;3.78;2.45;;;;;;;5.29;63.82;102609.06;5031625;27;99717;-30
2023/04/05 00:24:24;;;;;;;6.05;2.97;;;;;;;5.26;64.21;102619.81;5031950;27;96710;-30
2023/04/05 00:26:49;;;;;;;6.68;3.33;;;;;;;5.25;63.64;102615.38;5031529;27;96784;-30
2023/04/05 00:29:15;;;;;;;4.60;2.40;;;;;;;5.25;64.14;102612.69;5031600;28;98236;-30
2023/04/05 00:31:40;;;;;;;6.30;3.35;;;;;;;5.22;63.88;102606.44;5031564;27;97869;-30
2023/04/05 00:34:07;;;;;;;5.60;2.42;;;;;;;5.19;64.36;102607.38;5034215;27;96712;-30
2023/04/05 00:36:34;;;;;;;8.88;2.47;;;;;;;5.12;65.01;102605.66;5034170;28;97083;-30
2023/04/05 00:38:59;;;;;;;9.02;3.75;;;;;;;5.13;65.05;102609.25;5033261;27;100994;-32
2023/04/05 00:41:24;;;;;;;6.93;3.50;;;;;;;5.04;64.41;102591.44;5034928;27;97807;-30
2023/04/05 00:43:50;;;;;;;3.10;2.63;;;;;;;5.07;65.08;102603.00;5034671;27;96609;-33
2023/04/05 00:46:16;;;;;;;3.42;1.85;;;;;;;5.09;65.02;102606.59;5035243;27;96705;-32
2023/04/05 00:48:41;;;;;;;5.30;3.13;;;;;;;5.07;64.22;102605.69;5034850;27;97366;-32
2023/04/05 00:51:10;;;;;;;2.67;2.10;;;;;;;5.03;64.70;102598.59;5035026;27;97879;-30
2023/04/05 00:53:36;;;;;;;1.98;1.52;;;;;;;5.00;65.05;102603.97;5033215;28;96870;-31
2023/04/05 00:56:02;;;;;;;2.88;2.10;;;;;;;4.95;65.20;102608.50;5033419;28;96806;-31
2023/04/05 00:58:28;;;;;;;3.67;1.90;;;;;;;4.95;65.88;102605.81;5033164;28;101324;-30
2023/04/05 01:01:01;;;;;;;3.10;1.52;;;;;;;4.92;66.13;102603.19;5034894;27;99046;-31
2023/04/05 01:03:29;;;;;;;3.28;1.63;;;;;;;4.87;66.13;102608.59;5033515;28;96556;-30
2023/04/05 01:06:01;;;;;;;5.22;1.88;;;;;;;4.82;67.05;102596.13;5034741;27;96708;-30
2023/04/05 01:08:36;;;;;;;3.95;2.50;;;;;;;4.80;67.19;102596.13;5034196;27;97454;-30
2023/04/05 01:11:04;;;;;;;1.75;1.50;;;;;;;4.75;66.51;102589.91;5033043;28;100972;-31
2023/04/05 01:13:30;;;;;;;4.95;2.70;;;;;;;4.76;66.54;102593.50;5032933;28;96747;-30
2023/04/05 01:15:55;;;;;;;2.47;1.88;;;;;;;4.77;66.86;102588.13;5034591;27;96801;-30
2023/04/05 01:18:23;;;;;;;1.90;1.55;;;;;;;4.74;66.71;102580.06;5034218;27;99611;-30
2023/04/05 01:20:53;;;;;;;2.72;1.65;;;;;;;4.72;66.25;102581.00;5032677;28;101369;-30
2023/04/05 01:23:36;;;;;;;4.00;1.40;;;;;;;4.66;66.61;102577.47;5033269;28;96611;-30
2023/04/05 01:26:08;;;;;;;4.88;1.60;;;;;;;4.67;67.06;102576.56;5033376;27;96745;-30
2023/04/05 01:29:02;;;;;;;2.15;1.65;;;;;;;4.63;66.91;102576.63;5034078;28;99576;-31
2023/04/05 01:31:43;;;;;;;1.85;1.50;;;;;;;4.63;66.82;102560.53;5034146;27;97880;-30
2023/04/05 01:34:27;;;;;;;1.83;0.88;;;;;;;4.59;66.54;102565.00;5034382;27;96575;-32
2023/04/05 01:37:00;;;;;;;1.83;0.82;;;;;;;4.53;67.57;102559.72;5034514;28;96457;-29
2023/04/05 01:39:27;;;;;;;2.67;1.30;;;;;;;4.47;66.93;102552.59;5033864;27;98032;-30
2023/04/05 01:41:58;;;;;;;2.22;1.50;;;;;;;4.49;67.52;102559.75;5032396;28;100605;-30
2023/04/05 01:44:23;;;;;;;1.57;1.30;;;;;;;4.45;67.44;102546.34;5031764;28;97250;-30
2023/04/05 01:46:48;;;;;;;2.53;1.45;;;;;;;4.44;66.34;102560.66;5034226;27;96915;-30
2023/04/05 01:49:14;;;;;;;2.22;1.65;;;;;;;4.41;67.57;102551.75;5033783;27;98088;-30
2023/04/05 01:51:40;;;;;;;1.25;1.15;;;;;;;4.37;67.49;102550.91;5032790;28;98982;-30
2023/04/05 01:54:06;;;;;;;1.92;1.42;;;;;;;4.33;67.88;102557.19;5033483;27;96746;-30
2023/04/05 01:56:31;;;;;;;3.17;1.60;;;;;;;4.28;67.82;102547.41;5033960;28;96760;-30
2023/04/05 01:58:57;;;;;;;5.85;1.42;;;;;;;4.28;68.25;102550.09;5033756;27;97408;-31
2023/04/05 02:01:22;;;;;;;2.63;1.50;;;;;;;4.23;67.95;102545.63;5033474;27;99194;-32
2023/04/05 02:03:47;;;;;;;2.33;1.60;;;;;;;4.19;67.37;102540.31;5033735;27;96606;-30
2023/04/05 02:06:13;;;;;;;1.48;1.25;;;;;;;4.20;67.76;102534.94;5033944;27;96818;-30
2023/04/05 02:08:38;;;;;;;3.33;1.48;;;;;;;4.20;67.83;102534.94;5033787;28;97875;-30
2023/04/05 02:11:03;;;;;;;1.75;1.40;;;;;;;4.17;68.86;102526.94;5033746;27;97903;-32
2023/04/05 02:13:29;;;;;;;3.45;2.05;;;;;;;4.19;68.44;102530.47;5033966;27;96649;-30
2023/04/05 02:15:54;;;;;;;1.45;1.15;;;;;;;4.15;68.72;102523.38;5034249;27;96748;-30
2023/04/05 02:18:29;;;;;;;1.95;1.27;;;;;;;4.13;68.20;102527.84;5033462;27;96857;-30
2023/04/05 02:21:04;;;;;;;7.65;2.03;;;;;;;4.10;68.00;102517.16;5031896;28;101914;-31
2023/04/05 02:23:30;;;;;;;1.02;0.90;;;;;;;4.12;68.47;102525.16;5033371;27;96599;-30
2023/04/05 02:25:57;;;;;;;1.55;1.02;;;;;;;4.08;67.49;102510.91;5032048;28;96845;-31
2023/04/05 02:28:22;;;;;;;1.25;0.95;;;;;;;4.12;67.75;102509.94;5031540;28;101117;-29
2023/04/05 02:30:47;;;;;;;1.98;1.30;;;;;;;4.08;67.85;102510.03;5033255;27;97994;-31
2023/04/05 02:33:13;;;;;;;1.75;1.30;;;;;;;4.05;68.12;102513.59;5033201;27;104118;-30
2023/04/05 02:35:38;;;;;;;2.83;1.50;;;;;;;4.06;68.59;102510.03;5033494;27;96804;-30
2023/04/05 02:38:04;;;;;;;2.03;1.13;;;;;;;4.05;67.79;102510.91;5032586;27;99986;-30
2023/04/05 02:40:30;;;;;;;1.35;1.15;;;;;;;4.06;67.84;102515.38;5032000;28;98896;-31
2023/04/05 02:42:55;;;;;;;2.80;1.48;;;;;;;4.05;69.23;102508.22;5031813;28;96555;-30
2023/04/05 02:45:20;;;;;;;3.30;1.60;;;;;;;4.05;68.38;102510.91;5032816;27;96850;-30
2023/04/05 02:47:46;;;;;;;1.65;1.15;;;;;;;4.01;68.39;102503.81;5032731;27;97921;-31
2023/04/05 02:50:11;;;;;;;1.80;1.15;;;;;;;3.99;68.76;102503.81;5032845;27;99107;-30
2023/04/05 02:52:36;;;;;;;1.60;1.50;;;;;;;3.98;68.83;102499.38;5033394;27;96863;-31
2023/04/05 02:55:05;;;;;;;2.97;1.98;;;;;;;3.93;68.89;102494.91;5032910;27;96812;-31
2023/04/05 02:57:30;;;;;;;2.17;1.00;;;;;;;3.94;68.81;102499.41;5031333;28;101355;-31
2023/04/05 02:59:56;;;;;;;2.45;1.70;;;;;;;3.92;69.29;102501.19;5031226;28;101186;-32
2023/04/05 03:02:21;;;;;;;2.00;1.60;;;;;;;3.86;69.09;102496.75;5032752;27;96499;-31
2023/04/05 03:04:46;;;;;;;3.13;1.67;;;;;;;3.86;69.16;102488.69;5033047;27;96811;-30
2023/04/05 03:07:17;;;;;;;1.98;0.82;;;;;;;3.79;69.70;102487.88;5032650;27;99835;-30
2023/04/05 03:09:45;;;;;;;2.05;1.05;;;;;;;3.77;69.60;102494.16;5032576;28;98921;-31
2023/04/05 03:12:11;;;;;;;4.22;2.05;;;;;;;3.76;69.01;102492.34;5031956;27;96628;-31
2023/04/05 03:14:37;;;;;;;3.75;1.40;;;;;;;3.71;70.01;102486.16;5032523;28;96787;-31
2023/04/05 03:17:03;;;;;;;1.60;1.48;;;;;;;3.67;70.05;102487.97;5031209;28;101092;-31
2023/04/05 03:19:28;;;;;;;1.40;1.30;;;;;;;3.65;70.64;102491.53;5032738;27;97906;-31
2023/04/05 03:21:53;;;;;;;2.75;1.13;;;;;;;3.61;70.19;102488.88;5032449;27;96503;-30
2023/04/05 03:24:19;;;;;;;2.55;1.52;;;;;;;3.58;70.72;102488.91;5032108;27;99788;-30
2023/04/05 03:26:46;;;;;;;2.75;1.90;;;;;;;3.56;70.69;102490.69;5030618;28;101124;-31
2023/04/05 03:29:11;;;;;;;2.03;1.75;;;;;;;3.51;69.96;102488.97;5031391;28;100832;-30
2023/04/05 03:31:37;;;;;;;1.17;0.80;;;;;;;3.50;69.98;102493.41;5032461;28;96662;-31
2023/04/05 03:34:03;;;;;;;3.00;1.55;;;;;;;3.46;70.60;102490.78;5032507;27;96845;-30
2023/04/05 03:36:40;;;;;;;5.22;1.42;;;;;;;3.47;70.80;102492.53;5032007;27;97978;-32
2023/04/05 03:39:07;;;;;;;1.48;1.00;;;;;;;3.46;70.55;102493.47;5030833;27;101007;-30
2023/04/05 03:41:32;;;;;;;4.45;1.08;;;;;;;3.39;70.50;102482.75;5030833;28;96780;-30
2023/04/05 03:43:58;;;;;;;2.38;1.77;;;;;;;3.34;71.38;102475.66;5032486;27;96801;-31
2023/04/05 03:46:23;;;;;;;2.88;1.67;;;;;;;3.35;71.05;102485.47;5031941;27;99443;-30
2023/04/05 03:48:48;;;;;;;2.42;1.67;;;;;;;3.32;71.94;102481.00;5032279;27;97347;-30
2023/04/05 03:51:14;;;;;;;1.83;1.42;;;;;;;3.30;71.31;102474.78;5031976;28;99928;-31
2023/04/05 03:53:39;;;;;;;2.83;1.65;;;;;;;3.26;72.12;102474.78;5032084;28;96757;-30
2023/04/05 03:56:06;;;;;;;1.45;0.95;;;;;;;3.24;71.51;102473.91;5031833;27;99374;-30
2023/04/05 03:58:32;;;;;;;0.88;0.88;;;;;;;3.21;71.99;102480.16;5030616;28;101112;-31
2023/04/05 04:00:57;;;;;;;2.00;1.20;;;;;;;3.21;71.99;102487.31;5031349;27;96609;-32
2023/04/05 04:03:24;;;;;;;1.95;1.73;;;;;;;3.19;71.02;102479.28;5030657;28;96929;-30
2023/04/05 04:05:50;;;;;;;4.15;2.08;;;;;;;3.21;71.39;102473.94;5031812;28;99362;-30
2023/04/05 04:08:15;;;;;;;1.67;1.35;;;;;;;3.16;71.27;102471.28;5033569;27;97824;-30
2023/04/05 04:10:41;;;;;;;1.35;1.23;;;;;;;3.20;70.75;102475.72;5035489;28;96688;-31
2023/04/05 04:13:06;;;;;;;1.90;1.15;;;;;;;3.16;70.86;102464.13;5035800;27;96795;-30
2023/04/05 04:15:31;;;;;;;1.83;1.30;;;;;;;3.20;71.25;102467.69;5035645;28;97223;-30
2023/04/05 04:17:57;;;;;;;3.10;1.45;;;;;;;3.19;71.46;102469.50;5035880;27;98051;-30
2023/04/05 04:20:22;;;;;;;2.42;1.67;;;;;;;3.16;71.30;102472.16;5035415;27;96574;-32
2023/04/05 04:22:48;;;;;;;3.28;2.35;;;;;;;3.18;71.40;102475.72;5035524;27;96740;-31
2023/04/05 04:25:17;;;;;;;1.45;1.10;;;;;;;3.15;71.55;102461.47;5034535;27;97927;-32
2023/04/05 04:27:43;;;;;;;1.42;1.27;;;;;;;3.11;71.68;102462.38;5034806;27;99187;-30
2023/04/05 04:30:10;;;;;;;3.50;2.03;;;;;;;3.11;71.85;102462.38;5034028;27;96528;-30
2023/04/05 04:32:55;;;;;;;3.75;1.33;;;;;;;3.08;72.08;102457.03;5035417;28;96872;-30
2023/04/05 04:35:27;;;;;;;0.93;0.80;;;;;;;3.08;72.18;102465.06;5035060;27;99856;-32
2023/04/05 04:37:53;;;;;;;2.00;1.48;;;;;;;3.07;71.64;102472.19;5034574;27;99548;-30
2023/04/05 04:40:20;;;;;;;4.30;1.73;;;;;;;3.07;71.53;102471.31;5034956;27;97040;-30
2023/04/05 04:42:45;;;;;;;4.65;2.30;;;;;;;3.07;71.69;102464.16;5035948;27;96732;-31
2023/04/05 04:45:14;;;;;;;2.60;2.10;;;;;;;3.07;71.77;102464.16;5034790;28;99184;-32
2023/04/05 04:47:41;;;;;;;2.75;1.40;;;;;;;3.04;71.85;102457.94;5033578;27;99509;-32
2023/04/05 04:50:08;;;;;;;4.22;2.15;;;;;;;3.04;71.59;102468.66;5032966;28;96669;-30
2023/04/05 04:52:33;;;;;;;1.60;1.17;;;;;;;3.02;70.94;102467.75;5033491;28;97195;-30
2023/04/05 04:54:58;;;;;;;7.70;2.42;;;;;;;2.98;72.73;102470.47;5034249;27;99319;-30
2023/04/05 04:57:24;;;;;;;5.30;2.08;;;;;;;2.96;72.00;102469.56;5033695;27;98340;-30
2023/04/05 04:59:50;;;;;;;1.77;1.30;;;;;;;2.94;72.31;102467.81;5035054;27;96654;-31
2023/04/05 05:02:15;;;;;;;4.00;2.42;;;;;;;2.93;72.55;102460.66;5034597;28;96877;-31
2023/04/05 05:04:42;;;;;;;2.45;1.67;;;;;;;2.93;72.27;102461.56;5035032;27;97428;-30
2023/04/05 05:07:09;;;;;;;2.17;1.65;;;;;;;2.93;71.53;102466.91;5034846;27;98019;-31
2023/04/05 05:09:34;;;;;;;1.95;1.80;;;;;;;2.90;71.95;102461.56;5034898;27;96568;-30
2023/04/05 05:12:00;;;;;;;3.40;1.95;;;;;;;2.88;72.41;102462.47;5034919;27;96780;-31
2023/04/05 05:14:26;;;;;;;1.95;1.75;;;;;;;2.90;72.48;102460.69;5033752;27;99351;-30
2023/04/05 05:16:53;;;;;;;2.20;1.73;;;;;;;2.90;72.70;102468.69;5034560;27;97812;-30
2023/04/05 05:19:18;;;;;;;2.45;1.55;;;;;;;2.87;72.57;102460.69;5033158;27;96446;-30
2023/04/05 05:21:45;;;;;;;3.15;2.00;;;;;;;2.87;72.59;102466.94;5033077;28;96965;-30
2023/04/05 05:24:10;;;;;;;3.17;1.48;;;;;;;2.89;72.67;102473.16;5034084;27;99348;-30
2023/04/05 05:26:36;;;;;;;3.78;1.55;;;;;;;2.90;72.36;102477.63;5034016;27;98843;-31
2023/04/05 05:29:02;;;;;;;3.25;2.22;;;;;;;2.88;72.58;102468.69;5034597;27;96514;-30
2023/04/05 05:31:28;;;;;;;3.22;1.77;;;;;;;2.88;72.97;102479.41;5034866;27;96723;-30
2023/04/05 05:33:53;;;;;;;2.47;1.50;;;;;;;2.88;71.83;102474.03;5034143;27;97912;-30
2023/04/05 05:36:18;;;;;;;3.47;3.00;;;;;;;2.91;72.66;102479.41;5034262;27;97959;-30
2023/04/05 05:38:45;;;;;;;1.50;1.35;;;;;;;2.93;72.69;102479.38;5033757;27;96639;-31
2023/04/05 05:41:10;;;;;;;1.52;1.20;;;;;;;2.94;72.65;102479.38;5034227;27;96745;-30
2023/04/05 05:43:35;;;;;;;3.03;2.13;;;;;;;2.95;72.38;102485.63;5034133;27;104305;-30
2023/04/05 05:46:01;;;;;;;4.03;2.35;;;;;;;2.95;72.42;102485.63;5034093;27;97304;-30
2023/04/05 05:48:26;;;;;;;2.22;1.52;;;;;;;2.98;72.75;102483.84;5032424;28;96575;-30
2023/04/05 05:50:53;;;;;;;2.28;1.65;;;;;;;2.98;72.59;102486.53;5034121;27;96818;-30
2023/04/05 05:53:18;;;;;;;4.50;2.03;;;;;;;2.95;73.13;102483.84;5031926;28;101149;-30
2023/04/05 05:55:44;;;;;;;3.67;2.10;;;;;;;2.97;73.37;102484.72;5034271;27;99155;-30
2023/04/05 05:58:10;;;;;;;1.60;1.48;;;;;;;3.00;72.47;102483.81;5032605;28;96700;-30
2023/04/05 06:00:35;;;;;;;3.70;2.30;;;;;;;3.04;72.35;102482.03;5033872;28;96709;-30
2023/04/05 06:03:01;;;;;;;2.55;1.80;;;;;;;3.05;72.19;102475.78;5033237;27;98040;-32
2023/04/05 06:05:26;;;;;;;3.53;1.40;;;;;;;3.07;71.75;102474.88;5033478;28;99407;-30
2023/04/05 06:07:51;;;;;;;4.35;1.60;;;;;;;3.10;71.96;102482.00;5033694;27;96581;-31
2023/04/05 06:10:17;;;;;;;1.50;1.38;;;;;;;3.13;71.60;102474.84;5033803;27;96929;-30
2023/04/05 06:12:42;;;;;;;2.83;1.80;;;;;;;3.21;71.50;102479.28;5033509;27;99084;-33
2023/04/05 06:15:08;;;;;;;9.95;2.10;;;;;;;3.24;71.50;102477.47;5033600;27;97772;-30
2023/04/05 06:17:38;;;;;;;1.50;1.33;;;;;;;3.30;72.94;102482.81;5034050;28;96444;-31
2023/04/05 06:20:04;;;;;;;4.15;2.50;;;;;;;3.37;71.81;102487.22;5033875;27;96665;-30
2023/04/05 06:22:30;;;;;;;2.80;2.10;;;;;;;3.47;72.01;102484.50;5032036;28;101099;-30
2023/04/05 06:24:55;;;;;;;2.45;1.95;;;;;;;3.54;70.84;102481.78;5033134;28;99497;-30
2023/04/05 06:27:20;;;;;;;3.50;2.88;;;;;;;3.59;71.05;102479.97;5032982;27;96510;-31
2023/04/05 06:29:46;;;;;;;8.55;2.58;;;;;;;3.71;70.08;102479.00;5033744;28;98173;-31
2023/04/05 06:32:11;;;;;;;3.92;2.50;;;;;;;3.89;69.89;102482.47;5032878;27;97880;-30
2023/04/05 06:34:36;;;;;;;2.45;1.85;;;;;;;3.98;70.16;102472.56;5033245;27;97697;-30
2023/04/05 06:37:02;;;;;;;1.70;1.58;;;;;;;4.16;69.81;102482.22;5033292;28;97454;-31
2023/04/05 06:39:27;;;;;;;1.60;1.33;;;;;;;4.30;68.44;102478.53;5033128;27;97315;-30
2023/04/05 06:41:52;;;;;;;3.33;2.40;;;;;;;4.39;69.09;102468.63;5033145;27;98029;-30
2023/04/05 06:44:18;;;;;;;2.50;1.95;;;;;;;4.53;69.39;102476.53;5033324;28;100679;-31
2023/04/05 06:46:43;;;;;;;2.33;2.13;;;;;;;4.69;68.22;102474.56;5033184;27;96702;-31
2023/04/05 06:49:08;;;;;;;3.08;2.20;;;;;;;4.89;68.30;102474.34;5032945;27;96788;-30
2023/04/05 06:51:34;;;;;;;4.07;2.10;;;;;;;5.05;67.90;102470.56;5032522;27;97887;-30
2023/04/05 06:53:59;;;;;;;3.40;2.53;;;;;;;5.23;67.14;102473.94;5032420;27;99371;-30
2023/04/05 06:56:24;;;;;;;3.70;1.75;;;;;;;5.43;66.99;102470.94;5032855;27;96615;-30
2023/04/05 06:58:50;;;;;;;4.82;2.45;;;;;;;5.73;66.12;102475.00;5032863;27;96862;-31
2023/04/05 07:01:16;;;;;;;6.50;2.05;;;;;;;5.93;65.63;102463.94;5031296;28;99123;-31
2023/04/05 07:03:41;;;;;;;4.85;2.47;;;;;;;6.13;64.83;102467.22;5031234;27;101294;-31
2023/04/05 07:06:08;;;;;;;2.03;1.63;;;;;;;6.33;64.89;102460.59;5032922;27;96653;-30
2023/04/05 07:08:33;;;;;;;5.18;2.72;;;;;;;6.57;64.12;102464.63;5033223;27;96718;-30
2023/04/05 07:10:59;;;;;;;3.67;1.50;;;;;;;6.74;63.41;102461.63;5032815;27;97388;-30
2023/04/05 07:13:24;;;;;;;3.08;1.70;;;;;;;6.92;62.83;102463.06;5032496;27;99554;-30
2023/04/05 07:15:51;;;;;;;4.97;2.92;;;;;;;7.00;62.31;102458.41;5031998;27;96600;-29
2023/04/05 07:18:17;;;;;;;2.50;1.83;;;;;;;7.12;62.10;102455.44;5031213;28;96897;-31
2023/04/05 07:20:47;;;;;;;3.72;2.28;;;;;;;7.26;61.59;102457.84;5031095;28;100846;-30
2023/04/05 07:23:12;;;;;;;3.38;1.77;;;;;;;7.43;61.11;102455.66;5030966;28;101019;-31
2023/04/05 07:25:39;;;;;;;3.78;2.38;;;;;;;7.68;60.49;102454.25;5032808;27;96496;-30
2023/04/05 07:28:04;;;;;;;2.92;2.13;;;;;;;7.79;60.18;102449.44;5031025;28;96901;-30
2023/04/05 07:30:30;;;;;;;3.50;2.25;;;;;;;7.85;59.12;102446.63;5032398;27;97965;-30
2023/04/05 07:32:57;;;;;;;3.35;1.95;;;;;;;7.97;59.68;102453.53;5032598;27;97874;-31
2023/04/05 07:35:22;;;;;;;3.75;1.85;;;;;;;8.18;59.48;102446.72;5031153;28;96533;-30
2023/04/05 07:37:48;;;;;;;3.92;2.67;;;;;;;8.35;59.23;102447.13;5032634;27;96783;-30
2023/04/05 07:40:13;;;;;;;4.45;2.13;;;;;;;8.53;57.97;102447.59;5030030;28;102575;-30
2023/04/05 07:42:39;;;;;;;4.63;2.83;;;;;;;8.62;58.35;102439.25;5031161;27;98878;-31
2023/04/05 07:45:05;;;;;;;3.03;1.70;;;;;;;8.73;57.20;102439.84;5032289;27;96530;-31
2023/04/05 07:47:33;;;;;;;3.53;2.10;;;;;;;8.86;57.68;102435.84;5030945;28;96869;-30
2023/04/05 07:49:58;;;;;;;4.93;2.35;;;;;;;9.01;57.42;102441.72;5030782;28;101423;-30
2023/04/05 07:52:23;;;;;;;4.75;2.80;;;;;;;9.12;56.79;102439.59;5032363;27;97809;-30
2023/04/05 07:54:49;;;;;;;6.00;2.70;;;;;;;9.34;56.81;102438.03;5030055;28;99147;-30
2023/04/05 07:57:18;;;;;;;2.60;1.77;;;;;;;9.42;56.77;102432.38;5032638;27;99818;-30
2023/04/05 07:59:44;;;;;;;4.18;2.33;;;;;;;9.63;56.01;102438.03;5031748;27;99381;-30
2023/04/05 08:02:09;;;;;;;3.17;1.88;;;;;;;9.78;54.87;102433.00;5031682;28;99315;-30
2023/04/05 08:04:35;;;;;;;3.75;2.35;;;;;;;9.77;54.46;102436.66;5031728;27;96546;-30
2023/04/05 08:07:00;;;;;;;7.63;2.85;;;;;;;9.82;54.81;102431.13;5031271;28;96911;-30
2023/04/05 08:09:25;;;;;;;3.03;2.00;;;;;;;10.05;53.46;102430.31;5031905;27;97917;-30
2023/04/05 08:11:51;;;;;;;4.38;2.63;;;;;;;10.26;53.41;102420.56;5031728;27;98639;-31
2023/04/05 08:14:16;;;;;;;4.38;2.20;;;;;;;10.28;53.10;102417.81;5031954;27;96606;-29
2023/04/05 08:16:42;;;;;;;4.15;2.15;;;;;;;10.37;52.52;102425.66;5030195;28;98122;-30
2023/04/05 08:19:07;;;;;;;7.78;2.47;;;;;;;10.47;51.82;102427.09;5030164;28;101142;-30
2023/04/05 08:21:33;;;;;;;6.28;2.75;;;;;;;10.63;51.81;102427.44;5031854;27;99206;-30
2023/04/05 08:23:58;;;;;;;3.05;2.10;;;;;;;10.70;51.61;102423.56;5031936;27;96495;-30
2023/04/05 08:26:24;;;;;;;4.15;2.10;;;;;;;10.81;50.66;102418.59;5031484;27;96808;-30
2023/04/05 08:28:50;;;;;;;2.67;1.73;;;;;;;10.93;48.56;102416.38;5031099;28;97596;-30
2023/04/05 08:31:15;;;;;;;3.65;1.70;;;;;;;10.99;48.73;102416.16;5031500;28;99156;-30
2023/04/05 08:33:41;;;;;;;4.47;1.90;;;;;;;11.23;50.23;102415.22;5031328;27;103768;-31
2023/04/05 08:36:08;;;;;;;2.40;1.85;;;;;;;11.48;48.56;102414.22;5031616;27;96844;-30
2023/04/05 08:38:34;;;;;;;4.72;2.53;;;;;;;11.48;48.86;102411.50;5029893;27;99020;-30
2023/04/05 08:41:08;;;;;;;5.90;2.42;;;;;;;11.42;46.82;102414.50;5029417;27;99166;-33
2023/04/05 08:43:52;;;;;;;3.88;2.15;;;;;;;11.53;46.63;102422.19;5029210;27;96959;-32
2023/04/05 08:46:18;;;;;;;4.50;1.55;;;;;;;11.57;44.09;102413.84;5028950;28;97065;-30
2023/04/05 08:48:44;;;;;;;3.90;2.08;;;;;;;11.66;48.13;102410.78;5029194;28;100677;-30
2023/04/05 08:51:09;;;;;;;4.15;2.20;;;;;;;11.91;48.39;102415.22;5030986;27;99470;-33
2023/04/05 08:53:35;;;;;;;4.28;2.03;;;;;;;11.95;45.30;102405.13;5030679;27;97077;-30
2023/04/05 08:56:01;;;;;;;6.70;2.42;;;;;;;12.04;45.51;102412.88;5035023;28;96543;-33
2023/04/05 08:58:27;;;;;;;5.97;2.25;;;;;;;12.05;45.36;102403.78;5033331;28;100980;-30
2023/04/05 09:00:55;;;;;;;4.28;2.47;;;;;;;12.25;42.50;102409.25;5033180;28;101583;-31
2023/04/05 09:03:24;;;;;;;4.95;2.25;;;;;;;12.37;45.92;102409.63;5033532;27;96754;-30
2023/04/05 09:05:50;;;;;;;3.53;2.10;;;;;;;12.57;44.13;102412.34;5033409;28;96921;-30
2023/04/05 09:08:16;;;;;;;3.28;1.63;;;;;;;12.58;41.18;102405.94;5033134;28;101394;-30
2023/04/05 09:10:42;;;;;;;1.75;1.52;;;;;;;12.52;43.05;102404.41;5033390;28;100998;-30
2023/04/05 09:13:08;;;;;;;3.33;2.10;;;;;;;12.57;43.76;102408.75;5033246;28;96624;-30
2023/04/05 09:15:38;;;;;;;5.15;1.98;;;;;;;12.66;42.02;102414.66;5033120;28;96903;-30
2023/04/05 09:18:03;;;;;;;3.90;2.40;;;;;;;12.65;41.67;102412.88;5032571;27;101530;-30
2023/04/05 09:20:29;;;;;;;4.50;2.22;;;;;;;12.73;43.66;102405.28;5033035;27;100830;-31
2023/04/05 09:22:57;;;;;;;4.35;2.03;;;;;;;12.84;43.22;102402.03;5034654;28;96590;-31
2023/04/05 09:25:41;;;;;;;5.03;2.20;;;;;;;12.94;42.65;102399.78;5034161;27;103624;-32
2023/04/05 09:28:08;;;;;;;4.78;2.30;;;;;;;13.25;43.99;102398.34;5033928;27;97898;-30
2023/04/05 09:30:35;;;;;;;3.47;2.08;;;;;;;13.36;43.76;102398.75;5032652;28;101030;-31
2023/04/05 09:33:02;;;;;;;4.63;2.13;;;;;;;13.50;41.64;102396.22;5033028;28;96624;-31
2023/04/05 09:35:30;;;;;;;3.03;1.80;;;;;;;13.52;40.93;102398.88;5033397;28;96867;-30
2023/04/05 09:38:00;;;;;;;3.95;2.03;;;;;;;13.42;39.12;102400.28;5033942;27;98193;-32
2023/04/05 09:40:45;;;;;;;4.05;1.95;;;;;;;13.22;39.32;102409.38;5032503;27;101013;-30
2023/04/05 09:43:11;;;;;;;4.85;2.10;;;;;;;13.32;39.62;102402.56;5032070;28;97136;-30
2023/04/05 09:45:41;;;;;;;3.78;2.08;;;;;;;13.43;37.83;102392.03;5034239;28;96785;-31
2023/04/05 09:48:08;;;;;;;4.30;2.22;;;;;;;13.49;39.91;102385.41;5033910;27;97979;-30
2023/04/05 09:50:34;;;;;;;7.72;2.22;;;;;;;13.22;41.88;102391.22;5033753;27;99163;-30
2023/04/05 09:53:20;;;;;;;2.75;1.90;;;;;;;13.44;40.30;102393.78;5032211;28;96639;-30
2023/04/05 09:55:45;;;;;;;3.38;1.90;;;;;;;13.60;38.79;102386.66;5034230;27;96691;-30
2023/04/05 09:58:12;;;;;;;3.95;2.28;;;;;;;13.73;38.42;102376.03;5033575;28;99829;-32
2023/04/05 10:00:51;;;;;;;3.70;2.03;;;;;;;13.87;39.48;102383.53;5032516;27;100816;-30
2023/04/05 10:03:17;;;;;;;4.03;2.17;;;;;;;14.18;40.53;102384.63;5032648;28;96739;-30
2023/04/05 10:05:43;;;;;;;3.00;1.92;;;;;;;14.42;41.66;102377.91;5033054;27;96780;-30
2023/04/05 10:08:08;;;;;;;3.15;1.85;;;;;;;14.37;37.14;102365.47;5033383;28;97982;-31
2023/04/05 10:10:45;;;;;;;5.15;2.03;;;;;;;14.36;39.14;102363.72;5033646;27;101808;-30
2023/04/05 10:13:10;;;;;;;5.18;2.30;;;;;;;14.44;39.18;102373.28;5032280;28;97069;-30
2023/04/05 10:15:36;;;;;;;3.05;1.90;;;;;;;14.23;38.89;102358.94;5033895;27;96472;-31
2023/04/05 10:18:05;;;;;;;3.03;1.92;;;;;;;14.40;37.27;102368.06;5033951;27;97306;-30
2023/04/05 10:20:34;;;;;;;2.53;1.75;;;;;;;14.39;38.21;102367.16;5033324;28;99037;-31
2023/04/05 10:23:05;;;;;;;5.90;2.67;;;;;;;14.66;36.46;102363.97;5032191;28;96639;-31
2023/04/05 10:25:59;;;;;;;3.35;2.22;;;;;;;14.69;36.98;102361.06;5032568;28;96751;-32
2023/04/05 10:28:39;;;;;;;3.97;2.22;;;;;;;14.75;38.70;102366.16;5031919;28;100800;-30
2023/04/05 10:31:10;;;;;;;3.38;1.85;;;;;;;14.72;39.22;102360.88;5031999;28;100664;-31
2023/04/05 10:33:44;;;;;;;4.10;2.08;;;;;;;14.81;39.02;102363.09;5031488;28;96982;-31
2023/04/05 10:36:25;;;;;;;5.10;2.28;;;;;;;14.81;38.88;102359.50;5031814;28;97249;-31
2023/04/05 10:39:00;;;;;;;3.38;2.03;;;;;;;14.91;38.97;102362.59;5031573;28;100580;-30
2023/04/05 10:41:26;;;;;;;3.72;1.80;;;;;;;15.10;38.94;102349.69;5031518;28;100797;-30
2023/04/05 10:43:55;;;;;;;3.35;1.65;;;;;;;15.26;36.19;102352.44;5033311;27;96533;-31
2023/04/05 10:46:21;;;;;;;4.25;2.42;;;;;;;15.08;39.90;102362.53;5032900;27;96857;-31
2023/04/05 10:49:08;;;;;;;3.67;2.20;;;;;;;15.24;37.95;102359.81;5032752;27;99175;-30
2023/04/05 10:51:34;;;;;;;3.28;1.90;;;;;;;15.47;38.38;102355.78;5031566;28;99357;-30
2023/04/05 10:54:00;;;;;;;4.18;2.47;;;;;;;15.46;37.96;102349.41;5031235;27;96810;-30
2023/04/05 10:56:26;;;;;;;4.82;2.47;;;;;;;15.44;34.58;102347.75;5033065;27;96795;-29
2023/04/05 10:58:54;;;;;;;5.85;2.25;;;;;;;15.42;36.58;102344.22;5030915;28;100932;-30
2023/04/05 11:01:20;;;;;;;3.78;2.47;;;;;;;15.61;36.92;102346.75;5031159;27;100960;-31
2023/04/05 11:03:47;;;;;;;4.38;2.50;;;;;;;15.77;36.85;102338.56;5031574;28;96597;-30
2023/04/05 11:06:20;;;;;;;5.40;2.88;;;;;;;15.63;37.58;102340.22;5032605;27;97156;-30
2023/04/05 11:08:47;;;;;;;4.28;2.28;;;;;;;15.73;37.33;102329.69;5031146;28;101431;-30
2023/04/05 11:11:16;;;;;;;4.70;1.92;;;;;;;15.60;32.77;102323.16;5029146;28;101386;-31
2023/04/05 11:13:55;;;;;;;4.75;2.53;;;;;;;15.39;36.42;102326.16;5029968;28;97121;-32
2023/04/05 11:16:22;;;;;;;5.20;2.58;;;;;;;15.05;35.06;102324.50;5030535;27;96735;-30
2023/04/05 11:18:49;;;;;;;3.83;2.40;;;;;;;15.13;37.28;102319.47;5028651;28;100922;-32
2023/04/05 11:21:24;;;;;;;3.47;2.33;;;;;;;15.40;36.50;102325.22;5028531;28;98911;-31
2023/04/05 11:24:05;;;;;;;5.57;2.42;;;;;;;15.60;34.68;102318.56;5028080;28;97322;-35
2023/04/05 11:26:43;;;;;;;4.80;2.47;;;;;;;15.89;36.96;102325.03;5031780;28;96665;-31
2023/04/05 11:29:10;;;;;;;4.10;2.63;;;;;;;15.96;36.43;102322.81;5032617;28;97466;-30